createdAt,value
2019-03-26T00:01:43.984Z,84.80
2019-03-26T00:04:20.376Z,84.30
2019-03-26T00:06:47.873Z,84.60
2019-03-26T00:09:29.833Z,84.10
2019-03-26T00:11:50.189Z,84.00
2019-03-26T00:14:19.172Z,83.80
2019-03-26T00:16:49.737Z,84.00
2019-03-26T00:19:18.804Z,83.70
2019-03-26T00:21:48.086Z,83.50
2019-03-26T00:24:18.205Z,82.90
2019-03-26T00:26:50.830Z,82.60
2019-03-26T00:29:19.434Z,83.10
2019-03-26T00:31:51.233Z,83.80
2019-03-26T00:34:20.162Z,84.00
2019-03-26T00:36:49.092Z,84.80
2019-03-26T00:39:19.661Z,84.90
2019-03-26T00:41:57.357Z,84.70
2019-03-26T00:44:26.345Z,84.80
2019-03-26T00:46:57.204Z,84.50
2019-03-26T00:49:31.492Z,84.50
2019-03-26T00:51:58.106Z,84.10
2019-03-26T00:54:27.089Z,84.40
2019-03-26T00:56:56.093Z,84.40
2019-03-26T00:59:25.057Z,84.10
2019-03-26T01:01:53.977Z,83.80
2019-03-26T01:04:32.640Z,84.60
2019-03-26T01:06:55.034Z,85.00
2019-03-26T01:09:23.962Z,85.30
2019-03-26T01:11:52.927Z,85.20
2019-03-26T01:14:24.498Z,84.50
2019-03-26T01:17:00.859Z,84.60
2019-03-26T01:19:29.847Z,84.60
2019-03-26T01:21:59.910Z,84.50
2019-03-26T01:24:28.841Z,84.40
2019-03-26T01:27:02.473Z,84.50
2019-03-26T01:29:31.393Z,84.70
2019-03-26T01:32:01.522Z,84.50
2019-03-26T01:34:30.536Z,84.60
2019-03-26T01:37:02.659Z,84.50
2019-03-26T01:39:35.822Z,84.70
2019-03-26T01:42:04.932Z,84.90
2019-03-26T01:44:33.871Z,84.70
2019-03-26T01:47:02.939Z,85.10
2019-03-26T01:49:31.889Z,85.40
2019-03-26T01:52:03.865Z,86.00
2019-03-26T01:54:32.855Z,86.50
2019-03-26T01:57:02.963Z,86.60
2019-03-26T01:59:32.924Z,86.90
2019-03-26T02:02:01.920Z,87.10
2019-03-26T02:04:30.926Z,87.20
2019-03-26T02:06:59.969Z,87.20
2019-03-26T02:09:28.963Z,87.80
2019-03-26T02:12:02.935Z,87.70
2019-03-26T02:14:33.165Z,87.70
2019-03-26T02:17:06.523Z,87.50
2019-03-26T02:19:37.348Z,87.50
2019-03-26T02:22:06.280Z,87.70
2019-03-26T02:24:35.382Z,87.70
2019-03-26T02:27:04.502Z,88.50
2019-03-26T02:29:33.415Z,87.70
2019-03-26T02:32:02.394Z,88.10
2019-03-26T02:34:34.072Z,88.60
2019-03-26T02:37:03.008Z,88.30
2019-03-26T02:39:31.982Z,88.00
2019-03-26T02:42:02.401Z,88.10
2019-03-26T02:44:33.008Z,87.70
2019-03-26T02:47:01.902Z,87.50
2019-03-26T02:49:30.928Z,87.60
2019-03-26T02:51:59.858Z,87.20
2019-03-26T02:54:28.755Z,87.50
2019-03-26T02:56:57.742Z,87.80
2019-03-26T02:59:29.409Z,87.90
2019-03-26T03:01:58.339Z,87.80
2019-03-26T03:04:31.618Z,87.40
2019-03-26T03:07:01.999Z,87.60
2019-03-26T03:09:30.915Z,88.00
2019-03-26T03:12:02.820Z,88.10
2019-03-26T03:14:31.770Z,88.60
2019-03-26T03:17:06.466Z,89.00
2019-03-26T03:19:38.677Z,88.80
2019-03-26T03:22:10.129Z,88.80
2019-03-26T03:24:39.251Z,89.30
2019-03-26T03:27:09.775Z,90.00
2019-03-26T03:29:41.230Z,90.00
2019-03-26T03:32:11.786Z,90.20
2019-03-26T03:34:40.845Z,90.00
2019-03-26T03:37:09.823Z,90.10
2019-03-26T03:39:38.805Z,90.00
2019-03-26T03:42:09.223Z,89.60
2019-03-26T03:44:38.212Z,89.50
2019-03-26T03:47:08.999Z,89.10
2019-03-26T03:49:37.945Z,88.70
2019-03-26T03:52:07.429Z,89.00
2019-03-26T03:54:39.132Z,88.70
2019-03-26T03:57:09.283Z,88.20
2019-03-26T03:59:39.299Z,88.50
2019-03-26T04:02:08.358Z,88.10
2019-03-26T04:04:37.385Z,88.30
2019-03-26T04:07:07.829Z,88.40
2019-03-26T04:09:36.828Z,88.50
2019-03-26T04:12:05.800Z,88.60
2019-03-26T04:14:36.074Z,88.50
2019-03-26T04:17:05.145Z,88.90
2019-03-26T04:19:37.244Z,88.70
2019-03-26T04:22:06.302Z,89.10
2019-03-26T04:24:38.386Z,89.30
2019-03-26T04:27:08.935Z,89.40
2019-03-26T04:29:39.021Z,89.60
2019-03-26T04:32:09.955Z,89.70
2019-03-26T04:34:40.682Z,89.80
2019-03-26T04:37:09.751Z,89.80
2019-03-26T04:39:40.196Z,90.10
2019-03-26T04:42:10.582Z,90.30
2019-03-26T04:44:41.696Z,90.50
2019-03-26T04:47:10.836Z,90.60
2019-03-26T04:49:41.331Z,90.70
2019-03-26T04:52:13.361Z,90.70
2019-03-26T04:54:47.047Z,90.90
2019-03-26T04:57:16.441Z,91.00
2019-03-26T04:59:45.772Z,90.70
2019-03-26T05:02:16.870Z,90.60
2019-03-26T05:04:45.896Z,90.50
2019-03-26T05:07:14.979Z,90.30
2019-03-26T05:09:44.093Z,90.20
2019-03-26T05:12:13.857Z,90.40
2019-03-26T05:14:49.813Z,90.50
2019-03-26T05:17:18.486Z,90.50
2019-03-26T05:19:50.593Z,90.60
2019-03-26T05:22:24.948Z,90.50
2019-03-26T05:24:55.180Z,90.40
2019-03-26T05:27:24.534Z,90.40
2019-03-26T05:29:54.666Z,90.50
2019-03-26T05:32:25.319Z,90.60
2019-03-26T05:34:55.529Z,90.70
2019-03-26T05:37:24.660Z,90.60
2019-03-26T05:39:54.243Z,90.60
2019-03-26T05:42:23.730Z,90.50
2019-03-26T05:44:54.334Z,90.70
2019-03-26T05:47:23.368Z,90.80
2019-03-26T05:49:52.329Z,90.90
2019-03-26T05:52:21.508Z,91.10
2019-03-26T05:55:02.503Z,90.90
2019-03-26T05:57:36.694Z,91.10
2019-03-26T06:00:12.540Z,91.10
2019-03-26T06:02:41.816Z,91.00
2019-03-26T06:05:11.010Z,91.10
2019-03-26T06:07:40.118Z,91.40
2019-03-26T06:10:13.408Z,91.50
2019-03-26T06:12:42.341Z,91.40
2019-03-26T06:15:12.900Z,91.20
2019-03-26T06:17:41.952Z,91.40
2019-03-26T06:20:11.451Z,91.20
2019-03-26T06:22:43.839Z,91.30
2019-03-26T06:25:13.622Z,91.20
2019-03-26T06:27:42.596Z,91.00
2019-03-26T06:30:14.213Z,91.10
2019-03-26T06:32:43.310Z,91.50
2019-03-26T06:35:12.650Z,91.40
2019-03-26T06:37:41.613Z,91.40
2019-03-26T06:40:12.159Z,91.30
2019-03-26T06:42:42.533Z,91.30
2019-03-26T06:45:12.519Z,91.30
2019-03-26T06:47:50.406Z,91.50
2019-03-26T06:51:04.750Z,91.30
2019-03-26T07:26:59.619Z,89.70
2019-03-26T07:31:59.773Z,89.40
2019-03-26T07:34:28.788Z,88.10
2019-03-26T07:36:57.825Z,88.30
2019-03-26T07:39:30.707Z,88.90
2019-03-26T07:42:26.811Z,88.10
2019-03-26T07:53:11.825Z,86.60
2019-03-26T07:58:48.230Z,86.10
2019-03-26T08:15:11.740Z,83.90
2019-03-26T08:17:40.657Z,83.00
2019-03-26T08:20:12.506Z,82.00
2019-03-26T08:22:40.715Z,81.40
2019-03-26T08:25:09.954Z,81.70
2019-03-26T08:27:38.856Z,80.10
2019-03-26T08:30:08.660Z,79.90
2019-03-26T08:32:38.571Z,81.80
2019-03-26T08:35:09.213Z,81.50
2019-03-26T08:37:39.893Z,82.70
2019-03-26T08:40:09.795Z,80.20
2019-03-26T08:42:40.337Z,81.00
2019-03-26T08:45:12.126Z,80.90
2019-03-26T08:47:40.998Z,82.10
2019-03-26T08:50:10.237Z,80.20
2019-03-26T08:52:39.725Z,79.40
2019-03-26T08:55:09.807Z,78.70
2019-03-26T08:57:40.286Z,79.20
2019-03-26T09:00:11.535Z,79.30
2019-03-26T09:02:40.413Z,76.80
2019-03-26T09:05:27.407Z,76.90
2019-03-26T09:25:05.231Z,74.40
2019-03-26T09:27:34.507Z,74.70
2019-03-26T09:30:04.365Z,73.70
2019-03-26T09:32:33.332Z,71.30
2019-03-26T09:35:07.225Z,72.00
2019-03-26T09:37:36.178Z,71.30
2019-03-26T09:40:07.506Z,71.20
2019-03-26T09:42:38.999Z,73.60
2019-03-26T09:45:19.147Z,72.90
2019-03-26T09:50:38.909Z,72.90
2019-03-26T09:53:08.006Z,72.30
2019-03-26T09:55:37.038Z,70.00
2019-03-26T09:58:06.089Z,72.60
2019-03-26T10:00:47.240Z,72.70
2019-03-26T10:03:16.569Z,69.40
2019-03-26T10:05:45.643Z,69.70
2019-03-26T10:08:17.804Z,68.90
2019-03-26T10:10:46.741Z,69.70
2019-03-26T10:13:15.721Z,67.20
2019-03-26T10:15:44.636Z,68.60
2019-03-26T10:18:13.555Z,67.50
2019-03-26T10:20:42.499Z,67.30
2019-03-26T10:23:11.513Z,68.50
2019-03-26T10:25:43.512Z,69.70
2019-03-26T10:28:14.073Z,70.00
2019-03-26T10:30:42.976Z,68.20
2019-03-26T10:33:11.967Z,66.50
2019-03-26T10:35:41.058Z,69.10
2019-03-26T10:38:11.783Z,65.50
2019-03-26T10:40:42.699Z,65.80
2019-03-26T10:43:13.463Z,65.50
2019-03-26T10:45:46.098Z,63.80
2019-03-26T10:51:43.218Z,64.00
2019-03-26T10:54:12.186Z,63.50
2019-03-26T10:56:41.486Z,62.70
2019-03-26T10:59:12.078Z,64.30
2019-03-26T11:01:41.046Z,63.50
2019-03-26T11:04:11.622Z,63.30
2019-03-26T11:06:40.906Z,63.60
2019-03-26T11:09:23.010Z,63.10
2019-03-26T11:11:40.544Z,64.40
2019-03-26T11:14:11.795Z,64.00
2019-03-26T11:16:45.160Z,64.50
2019-03-26T11:19:14.224Z,62.70
2019-03-26T11:21:43.291Z,63.40
2019-03-26T11:24:12.370Z,62.70
2019-03-26T11:26:44.937Z,63.90
2019-03-26T11:29:13.966Z,64.60
2019-03-26T11:31:43.053Z,63.20
2019-03-26T11:34:12.040Z,62.60
2019-03-26T11:36:45.464Z,62.80
2019-03-26T11:39:11.536Z,62.70
2019-03-26T11:41:40.628Z,62.20
2019-03-26T11:44:09.722Z,62.40
2019-03-26T11:46:40.641Z,61.60
2019-03-26T13:01:30.049Z,60.50
2019-03-26T13:04:11.709Z,61.10
2019-03-26T13:06:29.762Z,60.00
2019-03-26T13:08:58.758Z,60.00
2019-03-26T13:11:33.419Z,61.20
2019-03-26T13:14:03.491Z,60.10
2019-03-26T13:16:33.933Z,61.50
2019-03-26T13:19:02.913Z,61.30
2019-03-26T13:21:41.405Z,60.80
2019-03-26T13:24:11.445Z,61.30
2019-03-26T13:26:42.123Z,61.20
2019-03-26T13:29:11.263Z,60.50
2019-03-26T13:31:43.371Z,60.30
2019-03-26T13:34:18.449Z,60.50
2019-03-26T13:36:47.567Z,60.00
2019-03-26T13:39:16.554Z,60.10
2019-03-26T13:41:45.495Z,60.50
2019-03-26T13:44:14.562Z,60.80
2019-03-26T13:46:43.605Z,60.10
2019-03-26T13:49:12.624Z,60.00
2019-03-26T13:51:41.655Z,61.20
2019-03-26T13:54:12.230Z,59.40
2019-03-26T13:56:42.400Z,60.30
2019-03-26T13:59:14.150Z,60.70
2019-03-26T14:01:43.310Z,60.90
2019-03-26T14:05:11.859Z,59.90
2019-03-26T14:14:07.812Z,59.00
2019-03-26T14:16:36.936Z,60.00
2019-03-26T14:19:08.840Z,61.00
2019-03-26T14:21:40.913Z,61.60
2019-03-26T14:24:13.224Z,60.20
2019-03-26T14:26:47.109Z,61.30
2019-03-26T14:29:19.762Z,62.00
2019-03-26T14:31:52.546Z,61.00
2019-03-26T14:34:24.471Z,61.30
2019-03-26T14:36:54.294Z,61.30
2019-03-26T14:39:27.435Z,60.00
2019-03-26T14:41:56.434Z,60.80
2019-03-26T14:44:25.606Z,61.20
2019-03-26T14:46:56.169Z,61.60
2019-03-26T14:49:31.253Z,62.00
2019-03-26T14:52:01.845Z,62.60
2019-03-26T14:54:32.301Z,62.70
2019-03-26T14:57:01.418Z,62.80
2019-03-26T14:59:33.296Z,63.80
2019-03-26T15:02:07.570Z,63.40
2019-03-26T15:04:36.733Z,63.80
2019-03-26T15:07:08.463Z,63.80
2019-03-26T15:09:37.419Z,63.80
2019-03-26T15:12:10.566Z,64.00
2019-03-26T15:14:41.859Z,64.70
2019-03-26T15:17:15.521Z,65.00
2019-03-26T15:19:45.255Z,65.20
2019-03-26T15:22:16.064Z,65.30
2019-03-26T15:27:43.920Z,65.60
2019-03-26T15:30:47.866Z,65.80
2019-03-26T15:33:09.291Z,66.30
2019-03-26T15:46:37.125Z,67.60
2019-03-26T15:49:06.217Z,68.10
2019-03-26T15:51:35.223Z,67.90
2019-03-26T15:54:09.204Z,68.60
2019-03-26T15:56:58.969Z,68.60
2019-03-26T15:59:33.890Z,69.00
2019-03-26T16:02:05.237Z,68.90
2019-03-26T16:04:39.649Z,68.80
2019-03-26T16:07:15.541Z,69.00
2019-03-26T16:09:46.112Z,69.40
2019-03-26T16:12:19.351Z,69.50
2019-03-26T16:14:53.729Z,69.20
2019-03-26T16:17:22.677Z,69.40
2019-03-26T16:19:51.583Z,69.40
2019-03-26T16:22:20.603Z,69.40
2019-03-26T16:24:49.571Z,69.80
2019-03-26T16:27:19.321Z,69.40
2019-03-26T16:29:48.231Z,69.90
2019-03-26T16:32:17.201Z,69.80
2019-03-26T16:34:48.358Z,70.50
2019-03-26T16:37:19.298Z,69.60
2019-03-26T16:39:48.295Z,70.40
2019-03-26T16:45:57.234Z,70.50
2019-03-26T16:48:26.367Z,70.00
2019-03-26T16:50:55.365Z,70.50
2019-03-26T16:53:26.414Z,70.20
2019-03-26T16:55:55.518Z,70.30
2019-03-26T16:58:24.434Z,70.10
2019-03-26T17:00:56.181Z,70.40
2019-03-26T17:03:31.513Z,71.20
2019-03-26T17:05:57.231Z,70.90
2019-03-26T17:08:26.187Z,71.00
2019-03-26T17:10:55.411Z,70.80
2019-03-26T17:13:25.889Z,70.80
2019-03-26T17:15:54.826Z,70.60
2019-03-26T17:18:23.723Z,72.30
2019-03-26T17:20:55.672Z,71.80
2019-03-26T17:23:24.689Z,71.50
2019-03-26T17:25:54.771Z,71.80
2019-03-26T17:28:23.746Z,71.80
2019-03-26T17:30:58.489Z,72.10
2019-03-26T17:33:28.972Z,72.10
2019-03-26T17:35:58.628Z,71.80
2019-03-26T17:38:27.831Z,72.30
2019-03-26T17:40:57.112Z,73.30
2019-03-26T17:43:26.126Z,72.90
2019-03-26T17:45:55.134Z,73.10
2019-03-26T17:48:24.100Z,73.10
2019-03-26T17:50:54.432Z,72.50
2019-03-26T17:53:23.329Z,72.40
2019-03-26T17:55:52.262Z,72.50
2019-03-26T17:58:21.204Z,73.20
2019-03-26T18:00:53.096Z,74.00
2019-03-26T18:03:26.731Z,73.40
2019-03-26T18:05:52.564Z,74.30
2019-03-26T18:08:21.475Z,74.50
2019-03-26T18:10:50.391Z,74.20
2019-03-26T18:13:19.365Z,74.00
2019-03-26T18:15:48.677Z,74.20
2019-03-26T18:18:17.867Z,74.30
2019-03-26T18:20:49.584Z,74.80
2019-03-26T18:23:24.062Z,75.00
2019-03-26T18:26:02.450Z,75.60
2019-03-26T18:28:49.757Z,75.90
2019-03-26T18:31:18.765Z,74.90
2019-03-26T18:33:47.755Z,75.30
2019-03-26T18:36:16.851Z,75.20
2019-03-26T18:38:45.908Z,74.80
2019-03-26T18:41:14.875Z,75.00
2019-03-26T18:43:44.170Z,75.10
2019-03-26T18:46:13.616Z,75.00
2019-03-26T18:48:42.636Z,75.20
2019-03-26T18:51:11.665Z,75.70
2019-03-26T18:53:45.115Z,75.10
2019-03-26T18:56:17.183Z,75.20
2019-03-26T18:58:47.645Z,75.80
2019-03-26T19:01:16.708Z,75.30
2019-03-26T19:03:47.333Z,74.60
2019-03-26T19:06:16.408Z,74.80
2019-03-26T19:08:46.223Z,75.00
2019-03-26T19:11:15.237Z,74.70
2019-03-26T19:13:44.209Z,75.20
2019-03-26T19:16:13.176Z,75.30
2019-03-26T19:18:42.169Z,75.30
2019-03-26T19:21:11.340Z,75.10
2019-03-26T19:23:40.335Z,75.20
2019-03-26T19:26:09.416Z,75.40
2019-03-26T19:28:38.533Z,75.80
2019-03-26T19:31:07.567Z,75.40
2019-03-26T19:33:36.515Z,74.80
2019-03-26T19:36:07.369Z,75.50
2019-03-26T19:38:38.408Z,75.70
2019-03-26T19:41:07.475Z,75.50
2019-03-26T19:43:36.551Z,75.10
2019-03-26T19:46:05.544Z,74.80
2019-03-26T19:48:34.518Z,74.40
2019-03-26T19:51:05.171Z,74.30
2019-03-26T19:53:35.768Z,73.90
2019-03-26T19:56:06.330Z,74.00
2019-03-26T19:58:35.414Z,73.30
2019-03-26T20:01:04.606Z,73.20
2019-03-26T20:03:38.229Z,73.90
2019-03-26T20:06:13.282Z,73.70
2019-03-26T20:08:42.848Z,74.00
2019-03-26T20:11:15.309Z,74.30
2019-03-26T20:13:43.571Z,74.60
2019-03-26T20:16:15.212Z,74.00
2019-03-26T20:18:44.296Z,74.00
2019-03-26T20:21:13.314Z,74.20
2019-03-26T20:23:42.301Z,74.60
2019-03-26T20:26:11.342Z,74.30
2019-03-26T20:28:40.392Z,74.60
2019-03-26T20:31:09.385Z,75.00
2019-03-26T20:33:38.367Z,75.00
2019-03-26T20:36:07.705Z,75.30
2019-03-26T20:38:36.799Z,75.20
2019-03-26T20:41:05.788Z,75.10
2019-03-26T20:43:37.804Z,75.70
2019-03-26T20:46:27.125Z,75.90
2019-03-26T20:48:58.022Z,76.20
2019-03-26T20:51:40.125Z,76.80
2019-03-26T20:57:21.828Z,77.80
2019-03-26T20:59:58.711Z,76.20
2019-03-26T21:02:27.955Z,75.70
2019-03-26T21:05:06.709Z,74.00
2019-03-26T21:07:40.574Z,74.00
2019-03-26T21:10:15.474Z,74.40
2019-03-26T21:12:44.288Z,74.80
2019-03-26T21:15:16.458Z,75.10
2019-03-26T21:17:46.146Z,75.30
2019-03-26T21:20:15.528Z,74.30
2019-03-26T21:22:49.800Z,74.10
2019-03-26T21:33:10.929Z,75.10
2019-03-26T21:35:41.407Z,75.10
2019-03-26T21:38:10.335Z,75.20
2019-03-26T21:40:41.298Z,75.40
2019-03-26T21:43:11.089Z,75.40
2019-03-26T21:45:41.958Z,75.20
2019-03-26T21:48:13.863Z,75.70
2019-03-26T21:50:43.063Z,76.10
2019-03-26T21:53:12.258Z,75.90
2019-03-26T21:55:41.220Z,75.80
2019-03-26T21:58:10.205Z,75.70
2019-03-26T22:00:40.694Z,74.90
2019-03-26T22:03:10.102Z,75.40
2019-03-26T22:05:43.459Z,75.40
2019-03-26T22:08:13.459Z,75.90
2019-03-26T22:10:48.458Z,76.30
2019-03-26T22:13:17.352Z,76.30
2019-03-26T22:15:46.242Z,76.30
2019-03-26T22:18:16.817Z,76.10
2019-03-26T22:20:46.102Z,76.70
2019-03-26T22:23:16.462Z,77.00
2019-03-26T22:25:45.962Z,77.40
2019-03-26T22:28:16.699Z,77.80
2019-03-26T22:30:45.814Z,78.00
2019-03-26T22:33:14.726Z,77.70
2019-03-26T22:35:43.827Z,77.40
2019-03-26T22:38:13.055Z,76.80
2019-03-26T22:40:42.053Z,77.30
2019-03-26T22:43:11.145Z,77.60
2019-03-26T22:45:40.154Z,76.80
2019-03-26T22:48:15.059Z,76.70
2019-03-26T22:50:41.507Z,77.30
2019-03-26T22:53:12.172Z,77.60
2019-03-26T22:55:41.490Z,78.00
2019-03-26T22:58:10.735Z,78.50
2019-03-26T23:00:40.027Z,78.80
2019-03-26T23:03:09.194Z,79.10
2019-03-26T23:05:38.128Z,79.00
2019-03-26T23:08:09.832Z,79.40
2019-03-26T23:10:38.744Z,79.50
2019-03-26T23:13:07.635Z,79.40
2019-03-26T23:15:36.588Z,79.40
2019-03-26T23:18:10.054Z,79.10
2019-03-26T23:20:42.272Z,79.20
2019-03-26T23:23:11.264Z,79.10
2019-03-26T23:25:42.136Z,79.00
2019-03-26T23:28:12.122Z,79.10
2019-03-26T23:30:43.082Z,80.10
2019-03-26T23:33:13.658Z,79.90
2019-03-26T23:35:44.197Z,80.20
2019-03-26T23:38:13.088Z,80.10
2019-03-26T23:40:45.171Z,79.90
2019-03-26T23:43:14.101Z,79.80
2019-03-26T23:45:44.881Z,79.80
2019-03-26T23:48:13.511Z,79.50
2019-03-26T23:50:44.210Z,79.10
2019-03-26T23:53:13.115Z,80.00
2019-03-26T23:55:42.016Z,80.00
2019-03-26T23:58:11.075Z,80.50
